sensor_id;sensor_type;location;lat;lon;timestamp;pressure;altitude;pressure_sealevel;temperature;humidity
9325;BME280;4701;51.566;6.776;2022-12-08T06:00:34;100482.00;;;3.01;100.00
9325;BME280;4701;51.566;6.776;2022-12-08T06:02:36;100484.59;;;3.08;100.00
9325;BME280;4701;51.566;6.776;2022-12-08T06:04:38;100481.91;;;3.08;100.00
9325;BME280;4701;51.566;6.776;2022-12-08T06:06:40;100471.13;;;3.08;100.00
9325;BME280;4701;51.566;6.776;2022-12-08T06:08:42;100475.03;;;3.12;100.00
9325;BME280;4701;51.566;6.776;2022-12-08T06:10:44;100478.63;;;3.06;100.00
9325;BME280;4701;51.566;6.776;2022-12-08T06:12:46;100475.78;;;3.01;100.00
9325;BME280;4701;51.566;6.776;2022-12-08T06:14:47;100472.19;;;3.07;100.00
9325;BME280;4701;51.566;6.776;2022-12-08T06:16:50;100468.91;;;3.05;100.00
9325;BME280;4701;51.566;6.776;2022-12-08T06:18:52;100481.56;;;3.04;100.00
9325;BME280;4701;51.566;6.776;2022-12-08T06:21:01;100473.19;;;3.13;100.00
9325;BME280;4701;51.566;6.776;2022-12-08T06:23:02;100479.16;;;3.15;100.00
9325;BME280;4701;51.566;6.776;2022-12-08T06:25:05;100477.25;;;3.15;100.00
9325;BME280;4701;51.566;6.776;2022-12-08T06:27:07;100480.50;;;3.06;100.00
9325;BME280;4701;51.566;6.776;2022-12-08T06:29:09;100480.25;;;3.07;100.00
9325;BME280;4701;51.566;6.776;2022-12-08T06:31:13;100480.88;;;3.09;100.00
9325;BME280;4701;51.566;6.776;2022-12-08T06:33:16;100475.34;;;3.04;100.00
9325;BME280;4701;51.566;6.776;2022-12-08T06:35:18;100481.03;;;3.14;100.00
9325;BME280;4701;51.566;6.776;2022-12-08T06:37:20;100474.03;;;3.07;100.00
9325;BME280;4701;51.566;6.776;2022-12-08T06:39:22;100477.97;;;3.11;100.00
9325;BME280;4701;51.566;6.776;2022-12-08T06:41:23;100471.97;;;3.09;100.00
9325;BME280;4701;51.566;6.776;2022-12-08T06:43:26;100474.28;;;3.05;100.00
9325;BME280;4701;51.566;6.776;2022-12-08T06:45:27;100470.56;;;3.06;100.00
9325;BME280;4701;51.566;6.776;2022-12-08T06:47:28;100476.09;;;3.11;100.00
9325;BME280;4701;51.566;6.776;2022-12-08T06:49:32;100474.28;;;3.05;100.00
9325;BME280;4701;51.566;6.776;2022-12-08T06:51:33;100469.19;;;3.15;100.00
9325;BME280;4701;51.566;6.776;2022-12-08T06:53:36;100463.53;;;3.05;100.00
9325;BME280;4701;51.566;6.776;2022-12-08T06:55:42;100468.31;;;3.03;100.00
9325;BME280;4701;51.566;6.776;2022-12-08T06:57:43;100472.03;;;3.02;100.00
9325;BME280;4701;51.566;6.776;2022-12-08T06:59:45;100475.88;;;3.13;100.00
9325;BME280;4701;51.566;6.776;2022-12-08T07:01:47;100471.97;;;3.09;100.00
9325;BME280;4701;51.566;6.776;2022-12-08T07:03:49;100476.75;;;3.07;100.00
9325;BME280;4701;51.566;6.776;2022-12-08T07:05:55;100474.66;;;3.09;100.00
9325;BME280;4701;51.566;6.776;2022-12-08T07:07:58;100475.25;;;3.11;100.00
9325;BME280;4701;51.566;6.776;2022-12-08T07:10:00;100482.38;;;3.05;100.00
9325;BME280;4701;51.566;6.776;2022-12-08T07:12:02;100475.03;;;3.12;100.00
9325;BME280;4701;51.566;6.776;2022-12-08T07:14:04;100480.03;;;3.09;100.00
9325;BME280;4701;51.566;6.776;2022-12-08T07:16:06;100476.47;;;3.15;100.00
9325;BME280;4701;51.566;6.776;2022-12-08T07:18:08;100478.47;;;3.19;100.00
9325;BME280;4701;51.566;6.776;2022-12-08T07:20:11;100480.44;;;3.12;100.00
9325;BME280;4701;51.566;6.776;2022-12-08T07:22:14;100481.03;;;3.14;100.00
9325;BME280;4701;51.566;6.776;2022-12-08T07:24:16;100478.34;;;3.14;100.00
9325;BME280;4701;51.566;6.776;2022-12-08T07:26:18;100479.53;;;3.18;100.00
9325;BME280;4701;51.566;6.776;2022-12-08T07:28:20;100481.16;;;3.19;100.00
9325;BME280;4701;51.566;6.776;2022-12-08T07:30:22;100491.72;;;3.21;100.00
9325;BME280;4701;51.566;6.776;2022-12-08T07:32:23;100486.94;;;3.23;100.00
9325;BME280;4701;51.566;6.776;2022-12-08T07:34:28;100485.50;;;3.20;100.00
9325;BME280;4701;51.566;6.776;2022-12-08T07:36:30;100493.22;;;3.17;100.00
9325;BME280;4701;51.566;6.776;2022-12-08T07:38:33;100492.63;;;3.15;100.00
9325;BME280;4701;51.566;6.776;2022-12-08T07:40:37;100492.03;;;3.13;100.00
9325;BME280;4701;51.566;6.776;2022-12-08T07:42:39;100484.38;;;3.10;100.00
9325;BME280;4701;51.566;6.776;2022-12-08T07:44:41;100488.81;;;3.04;100.00
9325;BME280;4701;51.566;6.776;2022-12-08T07:46:43;100482.13;;;3.07;100.00
9325;BME280;4701;51.566;6.776;2022-12-08T07:48:45;100489.25;;;3.01;100.00
9325;BME280;4701;51.566;6.776;2022-12-08T07:50:47;100483.50;;;2.97;100.00
9325;BME280;4701;51.566;6.776;2022-12-08T07:52:49;100481.66;;;2.91;100.00
9325;BME280;4701;51.566;6.776;2022-12-08T07:54:52;100482.41;;;2.98;100.00
9325;BME280;4701;51.566;6.776;2022-12-08T07:56:56;100487.97;;;3.03;100.00
9325;BME280;4701;51.566;6.776;2022-12-08T07:59:00;100482.38;;;3.05;100.00
9325;BME280;4701;51.566;6.776;2022-12-08T08:01:02;100474.44;;;3.10;100.00
9325;BME280;4701;51.566;6.776;2022-12-08T08:03:04;100484.81;;;3.25;100.00
9325;BME280;4701;51.566;6.776;2022-12-08T08:05:09;100478.47;;;3.19;100.00
9325;BME280;4701;51.566;6.776;2022-12-08T08:07:11;100478.63;;;3.24;100.00
9325;BME280;4701;51.566;6.776;2022-12-08T08:09:13;100479.09;;;3.21;100.00
9325;BME280;4701;51.566;6.776;2022-12-08T08:11:16;100473.53;;;3.16;100.00
9325;BME280;4701;51.566;6.776;2022-12-08T08:13:18;100478.56;;;3.13;100.00
9325;BME280;4701;51.566;6.776;2022-12-08T08:15:20;100472.44;;;3.06;100.00
9325;BME280;4701;51.566;6.776;2022-12-08T08:17:22;100478.69;;;2.99;100.00
9325;BME280;4701;51.566;6.776;2022-12-08T08:19:27;100482.72;;;2.90;100.00
9325;BME280;4701;51.566;6.776;2022-12-08T08:21:29;100484.91;;;3.00;100.00
9325;BME280;4701;51.566;6.776;2022-12-08T08:23:32;100478.75;;;2.93;100.00
9325;BME280;4701;51.566;6.776;2022-12-08T08:25:34;100484.81;;;2.88;100.00
9325;BME280;4701;51.566;6.776;2022-12-08T08:27:37;100484.00;;;2.88;100.00
9325;BME280;4701;51.566;6.776;2022-12-08T08:29:39;100486.44;;;2.89;100.00
9325;BME280;4701;51.566;6.776;2022-12-08T08:31:41;100476.22;;;2.98;100.00
9325;BME280;4701;51.566;6.776;2022-12-08T08:33:43;100488.28;;;2.95;100.00
9325;BME280;4701;51.566;6.776;2022-12-08T08:35:44;100484.28;;;2.98;100.00
9325;BME280;4701;51.566;6.776;2022-12-08T08:37:46;100479.66;;;2.87;100.00
9325;BME280;4701;51.566;6.776;2022-12-08T08:39:48;100480.63;;;2.92;100.00
9325;BME280;4701;51.566;6.776;2022-12-08T08:41:50;100483.31;;;2.92;100.00
9325;BME280;4701;51.566;6.776;2022-12-08T08:44:00;100483.09;;;2.94;100.00
9325;BME280;4701;51.566;6.776;2022-12-08T08:46:06;100483.09;;;2.94;100.00
9325;BME280;4701;51.566;6.776;2022-12-08T08:48:11;100488.94;;;2.91;100.00
9325;BME280;4701;51.566;6.776;2022-12-08T08:50:13;100482.28;;;2.93;100.00
9325;BME280;4701;51.566;6.776;2022-12-08T08:52:16;100491.56;;;2.97;100.00
9325;BME280;4701;51.566;6.776;2022-12-08T08:54:17;100491.56;;;2.97;100.00
9325;BME280;4701;51.566;6.776;2022-12-08T08:56:20;100497.00;;;2.91;100.00
9325;BME280;4701;51.566;6.776;2022-12-08T08:58:22;100486.00;;;2.92;100.00
9325;BME280;4701;51.566;6.776;2022-12-08T09:00:25;100491.56;;;2.97;100.00
9325;BME280;4701;51.566;6.776;2022-12-08T09:02:27;100489.31;;;2.94;100.00
9325;BME280;4701;51.566;6.776;2022-12-08T09:04:29;100506.38;;;2.88;100.00
9325;BME280;4701;51.566;6.776;2022-12-08T09:06:31;100500.38;;;2.86;100.00
9325;BME280;4701;51.566;6.776;2022-12-08T09:08:35;100498.94;;;2.84;100.00
9325;BME280;4701;51.566;6.776;2022-12-08T09:10:37;100499.13;;;2.89;100.00
9325;BME280;4701;51.566;6.776;2022-12-08T09:12:42;100496.41;;;2.89;100.00
9325;BME280;4701;51.566;6.776;2022-12-08T09:14:44;100488.50;;;2.94;100.00
9325;BME280;4701;51.566;6.776;2022-12-08T09:16:47;100497.53;;;2.99;100.00
9325;BME280;4701;51.566;6.776;2022-12-08T09:18:49;100501.50;;;2.97;100.00
9325;BME280;4701;51.566;6.776;2022-12-08T09:20:52;100503.38;;;2.96;100.00
9325;BME280;4701;51.566;6.776;2022-12-08T09:22:54;100491.56;;;2.97;100.00
9325;BME280;4701;51.566;6.776;2022-12-08T09:24:55;100500.63;;;3.03;100.00
9325;BME280;4701;51.566;6.776;2022-12-08T09:26:57;100502.47;;;3.02;100.00
9325;BME280;4701;51.566;6.776;2022-12-08T09:28:59;100504.34;;;3.02;100.00
9325;BME280;4701;51.566;6.776;2022-12-08T09:31:01;100500.97;;;2.88;100.00
9325;BME280;4701;51.566;6.776;2022-12-08T09:33:04;100486.19;;;2.97;100.00
9325;BME280;4701;51.566;6.776;2022-12-08T09:35:07;100496.97;;;2.97;100.00
9325;BME280;4701;51.566;6.776;2022-12-08T09:37:08;100495.53;;;2.95;100.00
9325;BME280;4701;51.566;6.776;2022-12-08T09:39:10;100494.25;;;2.97;100.00
9325;BME280;4701;51.566;6.776;2022-12-08T09:41:15;100497.38;;;2.94;100.00
9325;BME280;4701;51.566;6.776;2022-12-08T09:43:38;100500.44;;;2.98;100.00
9325;BME280;4701;51.566;6.776;2022-12-08T09:45:50;100496.06;;;3.03;100.00
9325;BME280;4701;51.566;6.776;2022-12-08T09:47:59;100494.94;;;3.11;100.00
9325;BME280;4701;51.566;6.776;2022-12-08T09:50:11;100497.84;;;3.10;100.00
9325;BME280;4701;51.566;6.776;2022-12-08T09:52:19;100499.88;;;3.14;100.00
9325;BME280;4701;51.566;6.776;2022-12-08T09:54:27;100494.50;;;3.14;100.00
9325;BME280;4701;51.566;6.776;2022-12-08T09:56:33;100498.47;;;3.12;100.00
9325;BME280;4701;51.566;6.776;2022-12-08T09:58:44;100495.16;;;3.10;100.00
9325;BME280;4701;51.566;6.776;2022-12-08T10:00:49;100500.97;;;3.07;100.00
9325;BME280;4701;51.566;6.776;2022-12-08T10:02:51;100499.88;;;2.96;100.00
9325;BME280;4701;51.566;6.776;2022-12-08T10:04:54;100497.38;;;2.94;100.00
9325;BME280;4701;51.566;6.776;2022-12-08T10:07:03;100493.19;;;2.98;100.00
9325;BME280;4701;51.566;6.776;2022-12-08T10:09:16;100485.91;;;3.06;100.00
9325;BME280;4701;51.566;6.776;2022-12-08T10:11:26;100493.16;;;3.05;100.00
9325;BME280;4701;51.566;6.776;2022-12-08T10:13:36;100481.03;;;2.96;100.00
9325;BME280;4701;51.566;6.776;2022-12-08T10:15:42;100484.38;;;2.91;100.00
9325;BME280;4701;51.566;6.776;2022-12-08T10:17:46;100492.72;;;2.83;100.00
9325;BME280;4701;51.566;6.776;2022-12-08T10:19:50;100495.06;;;2.80;100.00
9325;BME280;4701;51.566;6.776;2022-12-08T10:21:56;100489.22;;;2.83;100.00
9325;BME280;4701;51.566;6.776;2022-12-08T10:24:03;100491.75;;;2.78;100.00
9325;BME280;4701;51.566;6.776;2022-12-08T10:26:11;100489.72;;;2.73;100.00
9325;BME280;4701;51.566;6.776;2022-12-08T10:28:14;100484.19;;;2.68;100.00
9325;BME280;4701;51.566;6.776;2022-12-08T10:30:18;100486.88;;;2.68;100.00
9325;BME280;4701;51.566;6.776;2022-12-08T10:32:23;100484.03;;;2.63;100.00
9325;BME280;4701;51.566;6.776;2022-12-08T10:34:28;100487.16;;;2.60;100.00
9325;BME280;4701;51.566;6.776;2022-12-08T10:36:49;100478.94;;;2.55;100.00
9325;BME280;4701;51.566;6.776;2022-12-08T10:38:51;100478.69;;;2.56;100.00
9325;BME280;4701;51.566;6.776;2022-12-08T10:40:59;100480.19;;;2.52;100.00
9325;BME280;4701;51.566;6.776;2022-12-08T10:43:13;100484.34;;;2.48;100.00
9325;BME280;4701;51.566;6.776;2022-12-08T10:45:24;100480.41;;;2.51;100.00
9325;BME280;4701;51.566;6.776;2022-12-08T10:47:28;100466.97;;;2.51;100.00
9325;BME280;4701;51.566;6.776;2022-12-08T10:49:30;100474.69;;;2.65;100.00
9325;BME280;4701;51.566;6.776;2022-12-08T10:51:37;100468.31;;;2.60;100.00
9325;BME280;4701;51.566;6.776;2022-12-08T10:53:44;100473.31;;;2.56;100.00
9325;BME280;4701;51.566;6.776;2022-12-08T10:55:49;100475.34;;;2.61;100.00
9325;BME280;4701;51.566;6.776;2022-12-08T10:57:52;100476.63;;;2.58;100.00
9325;BME280;4701;51.566;6.776;2022-12-08T10:59:54;100460.69;;;2.57;100.00
9325;BME280;4701;51.566;6.776;2022-12-08T11:01:56;100465.19;;;2.63;100.00
9325;BME280;4701;51.566;6.776;2022-12-08T11:04:01;100462.53;;;2.56;100.00
9325;BME280;4701;51.566;6.776;2022-12-08T11:06:12;100458.38;;;2.60;100.00
9325;BME280;4701;51.566;6.776;2022-12-08T11:08:15;100467.72;;;2.58;100.00
9325;BME280;4701;51.566;6.776;2022-12-08T11:10:19;100466.53;;;2.54;100.00
9325;BME280;4701;51.566;6.776;2022-12-08T11:12:21;100465.03;;;2.58;100.00
9325;BME280;4701;51.566;6.776;2022-12-08T11:14:26;100462.34;;;2.58;100.00
9325;BME280;4701;51.566;6.776;2022-12-08T11:16:29;100454.19;;;2.64;100.00
9325;BME280;4701;51.566;6.776;2022-12-08T11:18:40;100454.81;;;2.66;100.00
9325;BME280;4701;51.566;6.776;2022-12-08T11:20:42;100451.47;;;2.71;100.00
9325;BME280;4701;51.566;6.776;2022-12-08T11:22:45;100439.41;;;2.74;100.00
9325;BME280;4701;51.566;6.776;2022-12-08T11:25:15;100439.94;;;2.82;100.00
9325;BME280;4701;51.566;6.776;2022-12-08T11:27:20;100438.53;;;2.80;100.00
9325;BME280;4701;51.566;6.776;2022-12-08T11:29:22;100435.38;;;2.83;100.00
9325;BME280;4701;51.566;6.776;2022-12-08T11:31:30;100435.56;;;2.88;100.00
9325;BME280;4701;51.566;6.776;2022-12-08T11:33:33;100437.63;;;2.86;100.00
9325;BME280;4701;51.566;6.776;2022-12-08T11:35:37;100437.78;;;2.91;100.00
9325;BME280;4701;51.566;6.776;2022-12-08T11:37:42;100423.50;;;2.90;100.00
9325;BME280;4701;51.566;6.776;2022-12-08T11:39:48;100427.84;;;2.91;100.00
9325;BME280;4701;51.566;6.776;2022-12-08T11:41:52;100434.22;;;2.97;100.00
9325;BME280;4701;51.566;6.776;2022-12-08T11:44:01;100424.69;;;2.94;100.00
9325;BME280;4701;51.566;6.776;2022-12-08T11:46:10;100424.69;;;2.94;100.00
9325;BME280;4701;51.566;6.776;2022-12-08T11:48:16;100417.16;;;3.03;100.00
9325;BME280;4701;51.566;6.776;2022-12-08T11:50:24;100429.91;;;3.08;100.00
9325;BME280;4701;51.566;6.776;2022-12-08T11:52:30;100420.56;;;3.10;100.00
9325;BME280;4701;51.566;6.776;2022-12-08T11:54:37;100421.28;;;3.06;100.00
9325;BME280;4701;51.566;6.776;2022-12-08T11:56:43;100414.81;;;3.07;100.00
9325;BME280;4701;51.566;6.776;2022-12-08T11:58:49;100422.53;;;3.03;100.00
9325;BME280;4701;51.566;6.776;2022-12-08T12:00:52;100418.50;;;3.12;100.00
9325;BME280;4701;51.566;6.776;2022-12-08T12:03:01;100419.31;;;3.13;100.00
9325;BME280;4701;51.566;6.776;2022-12-08T12:05:08;100417.34;;;3.20;100.00
9325;BME280;4701;51.566;6.776;2022-12-08T12:12:28;100420.72;;;3.15;100.00
9325;BME280;4701;51.566;6.776;2022-12-08T12:17:05;100422.31;;;3.04;100.00
9325;BME280;4701;51.566;6.776;2022-12-08T12:19:10;100413.63;;;3.02;100.00
9325;BME280;4701;51.566;6.776;2022-12-08T12:21:19;100414.00;;;3.06;100.00
9325;BME280;4701;51.566;6.776;2022-12-08T12:23:27;100417.75;;;3.05;100.00
9325;BME280;4701;51.566;6.776;2022-12-08T12:25:32;100425.53;;;3.13;100.00
9325;BME280;4701;51.566;6.776;2022-12-08T12:27:38;100413.09;;;3.12;100.00
9325;BME280;4701;51.566;6.776;2022-12-08T12:29:45;100418.19;;;3.02;100.00
9325;BME280;4701;51.566;6.776;2022-12-08T12:31:51;100414.53;;;2.96;100.00
9325;BME280;4701;51.566;6.776;2022-12-08T12:34:04;100418.41;;;3.00;100.00
9325;BME280;4701;51.566;6.776;2022-12-08T12:36:08;100414.91;;;3.00;100.00
9325;BME280;4701;51.566;6.776;2022-12-08T12:38:19;100415.63;;;3.07;100.00
9325;BME280;4701;51.566;6.776;2022-12-08T12:40:41;100414.38;;;3.10;100.00
9325;BME280;4701;51.566;6.776;2022-12-08T12:42:46;100419.63;;;3.04;100.00
9325;BME280;4701;51.566;6.776;2022-12-08T12:45:10;100419.84;;;3.03;100.00
9325;BME280;4701;51.566;6.776;2022-12-08T12:47:46;100421.09;;;3.00;100.00
9325;BME280;4701;51.566;6.776;2022-12-08T12:50:04;100417.75;;;3.05;100.00
9325;BME280;4701;51.566;6.776;2022-12-08T12:52:45;100414.75;;;2.95;100.00
9325;BME280;4701;51.566;6.776;2022-12-08T12:57:24;100412.66;;;2.97;100.00
9325;BME280;4701;51.566;6.776;2022-12-08T12:59:39;100410.94;;;3.02;100.00
9325;BME280;4701;51.566;6.776;2022-12-08T13:01:51;100414.44;;;3.03;100.00
9325;BME280;4701;51.566;6.776;2022-12-08T13:04:02;100415.72;;;3.00;100.00
9325;BME280;4701;51.566;6.776;2022-12-08T13:06:07;100413.72;;;2.96;100.00
9325;BME280;4701;51.566;6.776;2022-12-08T13:08:18;100411.59;;;2.98;100.00
9325;BME280;4701;51.566;6.776;2022-12-08T13:10:23;100415.19;;;2.92;100.00
9325;BME280;4701;51.566;6.776;2022-12-08T13:12:27;100405.03;;;2.94;100.00
9325;BME280;4701;51.566;6.776;2022-12-08T13:14:31;100412.72;;;2.90;100.00
9325;BME280;4701;51.566;6.776;2022-12-08T13:16:36;100401.59;;;2.87;100.00
9325;BME280;4701;51.566;6.776;2022-12-08T13:18:41;100408.84;;;2.86;100.00
9325;BME280;4701;51.566;6.776;2022-12-08T13:20:46;100409.47;;;2.88;100.00
9325;BME280;4701;51.566;6.776;2022-12-08T13:23:00;100402.22;;;2.89;100.00
9325;BME280;4701;51.566;6.776;2022-12-08T13:27:50;100401.66;;;2.98;100.00
9325;BME280;4701;51.566;6.776;2022-12-08T13:32:53;100396.53;;;2.97;100.00
9325;BME280;4701;51.566;6.776;2022-12-08T13:34:58;100387.75;;;3.01;100.00
9325;BME280;4701;51.566;6.776;2022-12-08T13:37:19;100376.75;;;3.03;100.00
9325;BME280;4701;51.566;6.776;2022-12-08T13:39:29;100385.44;;;3.05;100.00
9325;BME280;4701;51.566;6.776;2022-12-08T13:41:36;100382.81;;;2.98;100.00
9325;BME280;4701;51.566;6.776;2022-12-08T13:43:44;100386.56;;;2.97;100.00
9325;BME280;4701;51.566;6.776;2022-12-08T13:45:48;100387.38;;;2.98;100.00
9325;BME280;4701;51.566;6.776;2022-12-08T13:47:56;100392.31;;;3.01;100.00
9325;BME280;4701;51.566;6.776;2022-12-08T13:50:02;100387.00;;;2.94;100.00
9325;BME280;4701;51.566;6.776;2022-12-08T13:52:04;100384.09;;;2.96;100.00
9325;BME280;4701;51.566;6.776;2022-12-08T13:54:16;100393.56;;;2.98;100.00
9325;BME280;4701;51.566;6.776;2022-12-08T13:56:19;100382.28;;;2.90;100.00
9325;BME280;4701;51.566;6.776;2022-12-08T13:58:25;100386.78;;;2.78;100.00
9325;BME280;4701;51.566;6.776;2022-12-08T14:00:29;100386.50;;;2.86;100.00
9325;BME280;4701;51.566;6.776;2022-12-08T14:02:34;100383.06;;;2.79;100.00
9325;BME280;4701;51.566;6.776;2022-12-08T14:04:36;100380.28;;;2.85;100.00
9325;BME280;4701;51.566;6.776;2022-12-08T14:06:43;100379.69;;;2.83;100.00
9325;BME280;4701;51.566;6.776;2022-12-08T14:08:50;100379.91;;;2.82;100.00
9325;BME280;4701;51.566;6.776;2022-12-08T14:10:59;100381.63;;;2.76;100.00
9325;BME280;4701;51.566;6.776;2022-12-08T14:13:04;100380.19;;;2.74;100.00
9325;BME280;4701;51.566;6.776;2022-12-08T14:15:12;100382.88;;;2.74;100.00
9325;BME280;4701;51.566;6.776;2022-12-08T14:17:18;100376.25;;;2.76;100.00
9325;BME280;4701;51.566;6.776;2022-12-08T14:19:22;100377.06;;;2.77;100.00
9325;BME280;4701;51.566;6.776;2022-12-08T14:21:27;100376.09;;;2.71;100.00
9325;BME280;4701;51.566;6.776;2022-12-08T14:23:33;100375.84;;;2.73;100.00
9325;BME280;4701;51.566;6.776;2022-12-08T14:25:35;100378.19;;;2.69;100.00
9325;BME280;4701;51.566;6.776;2022-12-08T14:27:38;100390.38;;;2.72;100.00
9325;BME280;4701;51.566;6.776;2022-12-08T14:29:42;100382.31;;;2.72;100.00
9325;BME280;4701;51.566;6.776;2022-12-08T14:31:44;100381.41;;;2.78;100.00
9325;BME280;4701;51.566;6.776;2022-12-08T14:33:47;100385.28;;;2.82;100.00
9325;BME280;4701;51.566;6.776;2022-12-08T14:35:50;100375.63;;;2.74;100.00
9325;BME280;4701;51.566;6.776;2022-12-08T14:37:54;100381.41;;;2.78;100.00
9325;BME280;4701;51.566;6.776;2022-12-08T14:40:00;100379.75;;;2.95;100.00
9325;BME280;4701;51.566;6.776;2022-12-08T14:44:21;100375.81;;;2.79;100.00
9325;BME280;4701;51.566;6.776;2022-12-08T14:46:24;100378.25;;;2.81;100.00
9325;BME280;4701;51.566;6.776;2022-12-08T14:48:39;100377.16;;;2.88;100.00
9325;BME280;4701;51.566;6.776;2022-12-08T14:50:45;100376.47;;;2.93;100.00
9325;BME280;4701;51.566;6.776;2022-12-08T14:52:56;100380.63;;;3.07;100.00
9325;BME280;4701;51.566;6.776;2022-12-08T14:54:57;100374.47;;;2.88;100.00
9325;BME280;4701;51.566;6.776;2022-12-08T14:57:00;100377.16;;;2.88;100.00
9325;BME280;4701;51.566;6.776;2022-12-08T14:59:05;100381.53;;;2.83;100.00
9325;BME280;4701;51.566;6.776;2022-12-08T15:01:12;100377.91;;;2.77;100.00
9325;BME280;4701;51.566;6.776;2022-12-08T15:03:16;100377.22;;;2.82;100.00
9325;BME280;4701;51.566;6.776;2022-12-08T15:05:19;100372.66;;;2.82;100.00
9325;BME280;4701;51.566;6.776;2022-12-08T15:07:25;100378.19;;;2.69;100.00
9325;BME280;4701;51.566;6.776;2022-12-08T15:09:30;100381.50;;;2.71;100.00
9325;BME280;4701;51.566;6.776;2022-12-08T15:11:33;100376.38;;;2.81;100.00
9325;BME280;4701;51.566;6.776;2022-12-08T15:13:43;100378.03;;;2.82;100.00
9325;BME280;4701;51.566;6.776;2022-12-08T15:15:47;100382.53;;;2.70;100.00
9325;BME280;4701;51.566;6.776;2022-12-08T15:17:51;100376.94;;;2.72;100.00
9325;BME280;4701;51.566;6.776;2022-12-08T15:20:02;100381.50;;;2.71;100.00
9325;BME280;4701;51.566;6.776;2022-12-08T15:22:15;100382.38;;;2.65;100.00
9325;BME280;4701;51.566;6.776;2022-12-08T15:24:21;100384.47;;;2.63;100.00
9325;BME280;4701;51.566;6.776;2022-12-08T15:26:25;100384.00;;;2.66;100.00
9325;BME280;4701;51.566;6.776;2022-12-08T15:28:28;100386.03;;;2.71;100.00
9325;BME280;4701;51.566;6.776;2022-12-08T15:30:30;100374.25;;;2.72;100.00
9325;BME280;4701;51.566;6.776;2022-12-08T15:32:32;100378.84;;;2.64;100.00
9325;BME280;4701;51.566;6.776;2022-12-08T15:34:34;100372.81;;;2.69;100.00
9325;BME280;4701;51.566;6.776;2022-12-08T15:36:36;100375.28;;;2.71;100.00
9325;BME280;4701;51.566;6.776;2022-12-08T15:38:39;100373.41;;;2.71;100.00
9325;BME280;4701;51.566;6.776;2022-12-08T15:40:42;100376.53;;;2.68;100.00
9325;BME280;4701;51.566;6.776;2022-12-08T15:42:44;100376.09;;;2.71;100.00
9325;BME280;4701;51.566;6.776;2022-12-08T15:44:46;100378.13;;;2.76;100.00
9325;BME280;4701;51.566;6.776;2022-12-08T15:46:47;100380.59;;;2.77;100.00
9325;BME280;4701;51.566;6.776;2022-12-08T15:48:50;100386.31;;;2.81;100.00
9325;BME280;4701;51.566;6.776;2022-12-08T15:50:52;100382.38;;;2.83;100.00
9325;BME280;4701;51.566;6.776;2022-12-08T15:52:54;100384.84;;;2.85;100.00
9325;BME280;4701;51.566;6.776;2022-12-08T15:54:56;100382.16;;;2.85;100.00
9325;BME280;4701;51.566;6.776;2022-12-08T15:56:59;100380.88;;;2.87;100.00
9325;BME280;4701;51.566;6.776;2022-12-08T15:59:00;100380.50;;;2.84;100.00
9325;BME280;4701;51.566;6.776;2022-12-08T16:01:02;100385.22;;;2.88;100.00
9325;BME280;4701;51.566;6.776;2022-12-08T16:03:05;100384.63;;;2.86;100.00
9325;BME280;4701;51.566;6.776;2022-12-08T16:05:07;100390.16;;;2.91;100.00
9325;BME280;4701;51.566;6.776;2022-12-08T16:07:17;100383.50;;;2.94;100.00
9325;BME280;4701;51.566;6.776;2022-12-08T16:09:22;100391.56;;;2.94;100.00
9325;BME280;4701;51.566;6.776;2022-12-08T16:11:28;100388.88;;;2.94;100.00
9325;BME280;4701;51.566;6.776;2022-12-08T16:13:49;100388.28;;;2.92;100.00
9325;BME280;4701;51.566;6.776;2022-12-08T16:15:51;100389.53;;;2.89;100.00
9325;BME280;4701;51.566;6.776;2022-12-08T16:17:54;100393.06;;;2.90;100.00
9325;BME280;4701;51.566;6.776;2022-12-08T16:19:56;100393.44;;;2.93;100.00
9325;BME280;4701;51.566;6.776;2022-12-08T16:21:58;100388.28;;;2.92;100.00
9325;BME280;4701;51.566;6.776;2022-12-08T16:23:59;100396.22;;;2.87;100.00
9325;BME280;4701;51.566;6.776;2022-12-08T16:26:01;100389.69;;;2.76;100.00
9325;BME280;4701;51.566;6.776;2022-12-08T16:28:03;100389.91;;;2.75;100.00
9325;BME280;4701;51.566;6.776;2022-12-08T16:30:10;100383.28;;;2.77;100.00
9325;BME280;4701;51.566;6.776;2022-12-08T16:32:14;100391.44;;;2.71;100.00
9325;BME280;4701;51.566;6.776;2022-12-08T16:34:16;100379.38;;;2.73;100.00
9325;BME280;4701;51.566;6.776;2022-12-08T16:36:18;100381.50;;;2.71;100.00
9325;BME280;4701;51.566;6.776;2022-12-08T16:38:19;100379.22;;;2.68;100.00
9325;BME280;4701;51.566;6.776;2022-12-08T16:40:21;100378.41;;;2.67;100.00
9325;BME280;4701;51.566;6.776;2022-12-08T16:42:24;100379.38;;;2.73;100.00
9325;BME280;4701;51.566;6.776;2022-12-08T16:44:43;100379.38;;;2.73;100.00
9325;BME280;4701;51.566;6.776;2022-12-08T16:46:46;100379.97;;;2.75;100.00
9325;BME280;4701;51.566;6.776;2022-12-08T16:48:48;100382.22;;;2.78;100.00
9325;BME280;4701;51.566;6.776;2022-12-08T16:50:49;100384.25;;;2.83;100.00
9325;BME280;4701;51.566;6.776;2022-12-08T16:52:55;100387.31;;;2.86;100.00
9325;BME280;4701;51.566;6.776;2022-12-08T16:54:57;100385.88;;;2.84;100.00
9325;BME280;4701;51.566;6.776;2022-12-08T16:56:59;100393.53;;;2.87;100.00
9325;BME280;4701;51.566;6.776;2022-12-08T16:59:01;100393.81;;;2.79;100.00
9325;BME280;4701;51.566;6.776;2022-12-08T17:01:02;100387.16;;;2.81;100.00
9325;BME280;4701;51.566;6.776;2022-12-08T17:03:06;100389.19;;;2.86;100.00
9325;BME280;4701;51.566;6.776;2022-12-08T17:05:09;100397.78;;;2.76;100.00
9325;BME280;4701;51.566;6.776;2022-12-08T17:07:12;100398.69;;;2.70;100.00
9325;BME280;4701;51.566;6.776;2022-12-08T17:09:14;100405.63;;;2.78;100.00
9325;BME280;4701;51.566;6.776;2022-12-08T17:11:20;100394.13;;;2.71;100.00
9325;BME280;4701;51.566;6.776;2022-12-08T17:13:22;100394.13;;;2.71;100.00
9325;BME280;4701;51.566;6.776;2022-12-08T17:15:24;100394.47;;;2.74;100.00
9325;BME280;4701;51.566;6.776;2022-12-08T17:17:26;100403.16;;;2.76;100.00
9325;BME280;4701;51.566;6.776;2022-12-08T17:19:29;100399.22;;;2.79;100.00
9325;BME280;4701;51.566;6.776;2022-12-08T17:21:31;100401.91;;;2.79;100.00
9325;BME280;4701;51.566;6.776;2022-12-08T17:23:33;100401.69;;;2.80;100.00
9325;BME280;4701;51.566;6.776;2022-12-08T17:25:34;100405.34;;;2.86;100.00
9325;BME280;4701;51.566;6.776;2022-12-08T17:27:37;100395.81;;;2.83;100.00